createdAt,value
2023-05-02T00:01:15.646Z,68.41
2023-05-02T00:03:43.682Z,68.29
2023-05-02T00:06:11.313Z,67.84
2023-05-02T00:08:38.258Z,68.37
2023-05-02T00:11:05.543Z,68.05
2023-05-02T00:13:32.283Z,68.49
2023-05-02T00:15:59.025Z,67.89
2023-05-02T00:18:25.762Z,66.96
2023-05-02T00:20:52.508Z,67.90
2023-05-02T00:23:19.236Z,68.36
2023-05-02T00:25:46.551Z,68.18
2023-05-02T00:28:16.720Z,68.29
2023-05-02T00:30:44.878Z,67.38
2023-05-02T00:33:13.361Z,67.43
2023-05-02T00:35:40.629Z,68.51
2023-05-02T00:38:07.686Z,68.21
2023-05-02T00:40:47.932Z,68.41
2023-05-02T00:43:16.103Z,67.07
2023-05-02T00:45:44.583Z,66.42
2023-05-02T00:48:11.989Z,66.35
2023-05-02T00:50:40.779Z,65.70
2023-05-02T00:53:09.052Z,65.02
2023-05-02T00:55:36.840Z,65.50
2023-05-02T00:58:08.827Z,66.12
2023-05-02T01:00:59.787Z,66.36
2023-05-02T01:04:00.198Z,66.69
2023-05-02T01:06:42.357Z,67.90
2023-05-02T01:09:32.021Z,68.23
2023-05-02T01:12:07.341Z,67.65
2023-05-02T01:14:38.755Z,67.89
2023-05-02T01:17:09.975Z,67.22
2023-05-02T01:19:40.291Z,67.46
2023-05-02T01:22:10.834Z,66.63
2023-05-02T01:24:59.482Z,65.62
2023-05-02T01:27:50.718Z,66.00
2023-05-02T01:30:19.990Z,68.15
2023-05-02T01:32:48.526Z,68.07
2023-05-02T01:35:16.957Z,67.61
2023-05-02T01:37:45.827Z,68.41
2023-05-02T01:40:16.721Z,69.13
2023-05-02T01:42:44.816Z,68.97
2023-05-02T01:45:13.754Z,68.96
2023-05-02T01:47:43.615Z,68.62
2023-05-02T01:50:16.787Z,68.63
2023-05-02T01:52:45.523Z,68.57
2023-05-02T01:55:15.415Z,69.33
2023-05-02T01:57:44.678Z,69.80
2023-05-02T02:00:13.266Z,69.41
2023-05-02T02:02:43.755Z,68.80
2023-05-02T02:05:12.723Z,68.69
2023-05-02T02:07:39.447Z,69.03
2023-05-02T02:10:07.069Z,68.62
2023-05-02T02:12:43.584Z,68.46
2023-05-02T02:15:18.002Z,68.28
2023-05-02T02:17:59.271Z,68.28
2023-05-02T02:20:29.396Z,68.47
2023-05-02T02:22:57.754Z,69.11
2023-05-02T02:25:26.990Z,68.83
2023-05-02T02:27:54.006Z,69.83
2023-05-02T02:30:21.422Z,69.56
2023-05-02T02:32:48.146Z,68.60
2023-05-02T02:35:15.147Z,69.42
2023-05-02T02:37:48.720Z,69.25
2023-05-02T02:40:26.345Z,70.07
2023-05-02T02:43:21.139Z,69.88
2023-05-02T02:46:31.594Z,70.26
2023-05-02T02:49:26.990Z,70.91
2023-05-02T02:52:02.659Z,71.43
2023-05-02T02:54:35.593Z,71.29
2023-05-02T02:57:13.252Z,71.57
2023-05-02T02:59:47.053Z,72.22
2023-05-02T03:02:18.682Z,71.97
2023-05-02T03:04:47.194Z,71.92
2023-05-02T03:07:14.255Z,71.32
2023-05-02T03:09:45.978Z,72.21
2023-05-02T03:12:17.524Z,72.06
2023-05-02T03:14:45.385Z,72.22
2023-05-02T03:17:12.148Z,71.17
2023-05-02T03:19:38.944Z,71.55
2023-05-02T03:22:06.205Z,71.02
2023-05-02T03:24:35.233Z,70.77
2023-05-02T03:27:03.243Z,71.46
2023-05-02T03:29:35.455Z,72.34
2023-05-02T03:32:02.857Z,72.61
2023-05-02T03:34:29.678Z,72.36
2023-05-02T03:36:57.044Z,72.26
2023-05-02T03:39:24.116Z,73.92
2023-05-02T03:41:51.073Z,73.10
2023-05-02T03:44:20.573Z,71.78
2023-05-02T03:46:48.186Z,70.92
2023-05-02T03:49:15.199Z,70.91
2023-05-02T03:51:44.669Z,70.80
2023-05-02T03:54:12.295Z,71.00
2023-05-02T03:56:42.966Z,71.33
2023-05-02T03:59:24.467Z,71.72
2023-05-02T04:01:51.806Z,72.26
2023-05-02T04:04:23.027Z,71.31
2023-05-02T04:06:52.233Z,72.48
2023-05-02T04:09:23.497Z,71.97
2023-05-02T04:11:54.340Z,71.90
2023-05-02T04:14:21.415Z,73.65
2023-05-02T04:16:50.637Z,73.61
2023-05-02T04:19:22.143Z,72.64
2023-05-02T04:21:49.076Z,73.76
2023-05-02T04:24:16.640Z,72.60
2023-05-02T04:26:46.214Z,71.57
2023-05-02T04:29:13.708Z,71.53
2023-05-02T04:31:41.371Z,72.85
2023-05-02T04:34:09.727Z,73.08
2023-05-02T04:36:42.064Z,72.56
2023-05-02T04:39:12.457Z,72.90
2023-05-02T04:41:44.928Z,72.00
2023-05-02T04:44:11.741Z,72.20
2023-05-02T04:46:38.564Z,72.45
2023-05-02T04:49:05.408Z,73.29
2023-05-02T04:51:32.689Z,73.97
2023-05-02T04:53:59.800Z,73.56
2023-05-02T04:56:27.393Z,73.80
2023-05-02T04:58:54.613Z,73.43
2023-05-02T05:01:27.795Z,73.19
2023-05-02T05:03:56.119Z,73.83
2023-05-02T05:06:23.106Z,73.74
2023-05-02T05:08:50.489Z,75.61
2023-05-02T05:11:17.626Z,74.34
2023-05-02T05:13:44.465Z,73.63
2023-05-02T05:16:13.226Z,73.98
2023-05-02T05:18:42.962Z,73.01
2023-05-02T05:21:12.379Z,72.23
2023-05-02T05:23:39.894Z,73.13
2023-05-02T05:26:12.192Z,72.94
2023-05-02T05:28:41.658Z,73.06
2023-05-02T05:31:09.723Z,72.95
2023-05-02T05:33:38.788Z,72.88
2023-05-02T05:36:12.447Z,73.09
2023-05-02T05:38:39.073Z,73.71
2023-05-02T05:41:07.910Z,73.43
2023-05-02T05:43:38.256Z,73.72
2023-05-02T05:46:06.181Z,72.97
2023-05-02T05:48:35.484Z,74.11
2023-05-02T05:51:06.124Z,75.00
2023-05-02T05:53:33.206Z,73.51
2023-05-02T05:56:12.812Z,73.56
2023-05-02T05:58:44.243Z,72.73
2023-05-02T06:01:13.076Z,71.53
2023-05-02T06:03:40.818Z,72.31
2023-05-02T06:06:07.723Z,71.95
2023-05-02T06:08:34.534Z,72.33
2023-05-02T06:11:01.249Z,73.24
2023-05-02T06:13:27.899Z,74.53
2023-05-02T06:15:55.731Z,74.24
2023-05-02T06:18:22.601Z,74.29
2023-05-02T06:20:49.237Z,74.20
2023-05-02T06:23:16.005Z,74.08
2023-05-02T06:25:42.610Z,74.30
2023-05-02T06:28:09.521Z,74.01
2023-05-02T06:30:36.242Z,73.77
2023-05-02T06:33:06.237Z,74.06
2023-05-02T06:35:33.191Z,73.73
2023-05-02T06:37:59.857Z,73.53
2023-05-02T06:40:26.662Z,73.68
2023-05-02T06:42:53.338Z,73.19
2023-05-02T06:45:20.247Z,73.20
2023-05-02T06:47:46.991Z,72.64
2023-05-02T06:50:13.729Z,73.33
2023-05-02T06:52:40.450Z,72.42
2023-05-02T06:55:07.521Z,71.34
2023-05-02T06:57:34.327Z,71.31
2023-05-02T07:00:01.300Z,70.80
2023-05-02T07:02:31.323Z,71.05
2023-05-02T07:04:58.101Z,70.80
2023-05-02T07:07:24.834Z,71.15
2023-05-02T07:09:52.200Z,69.36
2023-05-02T07:12:18.858Z,66.17
2023-05-02T07:14:46.833Z,64.11
2023-05-02T07:17:13.587Z,63.29
2023-05-02T07:19:40.537Z,61.79
2023-05-02T07:22:07.692Z,61.50
2023-05-02T07:24:34.491Z,61.21
2023-05-02T07:27:03.257Z,61.78
2023-05-02T07:29:29.963Z,62.74
2023-05-02T07:31:56.813Z,62.54
2023-05-02T07:34:23.476Z,61.76
2023-05-02T07:36:50.376Z,61.62
2023-05-02T07:39:17.077Z,61.87
2023-05-02T07:41:43.739Z,61.61
2023-05-02T07:44:11.587Z,58.67
2023-05-02T07:46:38.407Z,58.27
2023-05-02T07:49:05.138Z,57.94
2023-05-02T07:51:32.381Z,58.23
2023-05-02T07:53:59.442Z,57.05
2023-05-02T07:56:26.167Z,56.53
2023-05-02T07:58:52.990Z,56.26
2023-05-02T08:01:19.994Z,55.01
2023-05-02T08:03:47.072Z,54.54
2023-05-02T08:06:14.131Z,55.56
2023-05-02T08:08:40.949Z,57.25
2023-05-02T08:11:07.858Z,56.19
2023-05-02T08:13:35.471Z,56.97
2023-05-02T08:16:02.984Z,56.32
2023-05-02T08:18:33.069Z,57.38
2023-05-02T08:20:59.727Z,58.36
2023-05-02T08:23:26.445Z,59.41
2023-05-02T08:25:53.978Z,61.29
2023-05-02T08:28:20.684Z,60.21
2023-05-02T08:30:47.803Z,57.01
2023-05-02T08:33:14.780Z,57.06
2023-05-02T08:35:42.044Z,54.96
2023-05-02T08:38:08.823Z,54.44
2023-05-02T08:40:42.151Z,54.68
2023-05-02T08:43:11.748Z,55.84
2023-05-02T08:45:44.096Z,55.22
2023-05-02T08:48:13.284Z,53.95
2023-05-02T08:50:42.449Z,52.00
2023-05-02T08:53:10.492Z,52.77
2023-05-02T08:55:42.152Z,56.96
2023-05-02T08:58:10.728Z,58.16
2023-05-02T09:00:41.752Z,57.79
2023-05-02T09:03:42.355Z,58.69
2023-05-02T09:06:15.108Z,58.10
2023-05-02T09:08:44.124Z,58.42
2023-05-02T09:11:12.462Z,58.87
2023-05-02T09:13:41.890Z,58.21
2023-05-02T09:16:10.044Z,55.86
2023-05-02T09:18:45.598Z,55.77
2023-05-02T09:21:14.638Z,56.88
2023-05-02T09:23:43.810Z,56.86
2023-05-02T09:26:16.866Z,57.24
2023-05-02T09:28:51.643Z,57.76
2023-05-02T09:31:43.664Z,58.41
2023-05-02T09:34:16.342Z,58.85
2023-05-02T09:36:45.849Z,57.23
2023-05-02T09:39:16.038Z,57.58
2023-05-02T09:41:47.053Z,57.95
2023-05-02T09:44:22.455Z,58.92
2023-05-02T09:46:51.794Z,58.36
2023-05-02T09:49:20.144Z,58.39
2023-05-02T09:51:48.057Z,58.50
2023-05-02T09:54:36.282Z,60.24
2023-05-02T09:57:03.657Z,60.18
2023-05-02T10:01:59.658Z,59.54
2023-05-02T10:04:27.773Z,60.27
2023-05-02T10:06:55.401Z,59.22
2023-05-02T10:09:22.675Z,59.41
2023-05-02T10:11:53.575Z,58.60
2023-05-02T10:14:22.672Z,58.95
2023-05-02T10:16:59.813Z,59.76
2023-05-02T10:19:55.572Z,60.24
2023-05-02T10:22:23.086Z,59.68
2023-05-02T10:24:50.380Z,60.15
2023-05-02T10:27:17.124Z,59.72
2023-05-02T10:29:44.726Z,58.59
2023-05-02T10:32:12.519Z,57.65
2023-05-02T10:34:41.454Z,55.18
2023-05-02T10:37:08.135Z,54.43
2023-05-02T10:39:35.077Z,52.64
2023-05-02T10:42:04.549Z,51.34
2023-05-02T10:44:39.666Z,51.65
2023-05-02T10:47:26.762Z,51.69
2023-05-02T10:49:56.626Z,51.96
2023-05-02T10:52:32.851Z,51.21
2023-05-02T10:55:17.898Z,51.19
2023-05-02T10:57:59.909Z,52.74
2023-05-02T11:00:32.408Z,53.19
2023-05-02T11:03:00.360Z,54.61
2023-05-02T11:05:28.314Z,53.62
2023-05-02T11:08:21.300Z,52.63
2023-05-02T11:10:49.746Z,52.66
2023-05-02T11:13:16.463Z,52.31
2023-05-02T11:15:43.055Z,50.76
2023-05-02T11:18:14.414Z,52.61
2023-05-02T11:20:42.256Z,52.41
2023-05-02T11:23:15.410Z,52.73
2023-05-02T11:25:49.304Z,53.16
2023-05-02T11:28:34.274Z,52.44
2023-05-02T11:31:01.000Z,51.34
2023-05-02T11:33:30.832Z,49.17
2023-05-02T11:35:58.628Z,50.75
2023-05-02T11:38:26.960Z,50.54
2023-05-02T11:40:56.284Z,50.75
2023-05-02T11:43:25.998Z,50.89
2023-05-02T11:45:54.508Z,50.09
2023-05-02T11:48:23.036Z,50.32
2023-05-02T11:51:03.685Z,48.78
2023-05-02T11:53:31.428Z,50.90
2023-05-02T11:56:04.156Z,50.93
2023-05-02T11:58:33.284Z,49.46
2023-05-02T12:01:13.293Z,51.41
2023-05-02T12:03:40.662Z,48.14
2023-05-02T12:06:12.988Z,45.99
2023-05-02T12:08:41.563Z,45.61
2023-05-02T12:11:09.184Z,48.21
2023-05-02T12:13:45.190Z,45.95
2023-05-02T12:16:12.125Z,48.70
2023-05-02T12:18:39.026Z,48.19
2023-05-02T12:21:06.201Z,47.88
2023-05-02T12:23:35.236Z,49.07
2023-05-02T12:26:18.707Z,48.13
2023-05-02T12:28:50.761Z,47.56
2023-05-02T12:31:17.589Z,48.42
2023-05-02T12:33:52.289Z,46.82
2023-05-02T12:36:19.642Z,47.69
2023-05-02T12:38:55.148Z,47.28
2023-05-02T12:41:36.935Z,46.60
2023-05-02T12:44:04.507Z,45.67
2023-05-02T12:46:32.219Z,45.78
2023-05-02T12:49:09.076Z,44.69
2023-05-02T12:51:36.380Z,45.43
2023-05-02T12:54:03.753Z,47.01
2023-05-02T12:56:34.596Z,45.15
2023-05-02T12:59:03.994Z,45.24
2023-05-02T13:01:33.128Z,46.45
2023-05-02T13:03:59.986Z,46.57
2023-05-02T13:06:27.482Z,45.69
2023-05-02T13:08:54.265Z,44.36
2023-05-02T13:11:21.008Z,44.87
2023-05-02T13:13:47.624Z,44.29
2023-05-02T13:16:14.325Z,45.72
2023-05-02T13:18:41.445Z,46.63
2023-05-02T13:21:08.214Z,47.75
2023-05-02T13:23:34.893Z,46.35
2023-05-02T13:26:01.599Z,45.74
2023-05-02T13:28:30.277Z,45.00
2023-05-02T13:30:56.953Z,43.53
2023-05-02T13:33:23.714Z,42.11
2023-05-02T13:35:50.350Z,41.60
2023-05-02T13:38:16.970Z,43.56
2023-05-02T13:40:43.742Z,42.08
2023-05-02T13:43:10.402Z,42.82
2023-05-02T13:45:37.173Z,40.77
2023-05-02T13:48:04.020Z,41.97
2023-05-02T13:50:30.802Z,40.27
2023-05-02T13:52:57.459Z,41.99
2023-05-02T13:55:24.074Z,41.89
2023-05-02T13:57:50.913Z,42.10
2023-05-02T14:00:17.759Z,43.16
2023-05-02T14:02:47.375Z,41.08
2023-05-02T14:05:15.142Z,42.37
2023-05-02T14:07:41.783Z,39.58
2023-05-02T14:10:09.073Z,40.44
2023-05-02T14:12:36.018Z,41.91
2023-05-02T14:15:02.901Z,42.47
2023-05-02T14:17:32.425Z,42.87
2023-05-02T14:19:59.217Z,41.84
2023-05-02T14:22:26.180Z,42.36
2023-05-02T14:24:52.898Z,41.33
2023-05-02T14:27:19.613Z,41.67
2023-05-02T14:29:46.623Z,43.33
2023-05-02T14:32:13.925Z,42.99
2023-05-02T14:34:41.675Z,43.21
2023-05-02T14:37:11.283Z,43.13
2023-05-02T14:39:39.005Z,43.44
2023-05-02T14:42:06.052Z,42.20
2023-05-02T14:44:32.755Z,40.46
2023-05-02T14:46:59.483Z,37.75
2023-05-02T14:49:27.454Z,34.04
2023-05-02T14:51:55.650Z,31.10
2023-05-02T14:54:29.432Z,29.35
2023-05-02T14:56:56.946Z,25.92
2023-05-02T14:59:23.760Z,25.30
2023-05-02T15:01:51.613Z,24.31
2023-05-02T15:04:19.581Z,22.50
2023-05-02T15:06:48.054Z,21.28
2023-05-02T15:09:15.987Z,20.92
2023-05-02T15:11:44.664Z,20.18
2023-05-02T15:14:11.315Z,20.38
2023-05-02T15:16:39.212Z,22.23
2023-05-02T15:19:05.977Z,24.95
2023-05-02T15:21:32.791Z,22.70
2023-05-02T15:23:59.855Z,20.85
2023-05-02T15:26:27.132Z,19.62
2023-05-02T15:28:53.726Z,18.85
2023-05-02T15:31:20.874Z,20.90
2023-05-02T15:33:47.756Z,23.10
2023-05-02T15:36:14.638Z,25.15
2023-05-02T15:38:42.823Z,27.87
2023-05-02T15:41:12.529Z,29.54
2023-05-02T15:43:39.336Z,30.25
2023-05-02T15:46:06.036Z,30.22
2023-05-02T15:48:35.788Z,32.08
2023-05-02T15:51:02.927Z,32.00
2023-05-02T15:53:29.937Z,32.33
2023-05-02T15:55:57.011Z,33.08
2023-05-02T15:58:23.699Z,34.21
2023-05-02T16:00:52.269Z,35.29
2023-05-02T16:03:19.075Z,36.70
2023-05-02T16:05:46.362Z,37.09
2023-05-02T16:08:13.105Z,37.48
2023-05-02T16:10:40.310Z,38.51
2023-05-02T16:13:07.059Z,38.75
2023-05-02T16:15:33.724Z,40.09
2023-05-02T16:18:00.532Z,39.80
2023-05-02T16:20:28.779Z,39.37
2023-05-02T16:22:55.665Z,38.68
2023-05-02T16:25:22.559Z,39.26
2023-05-02T16:27:49.374Z,39.05
2023-05-02T16:30:16.355Z,39.88
2023-05-02T16:32:43.103Z,40.37
2023-05-02T16:35:12.885Z,40.31
2023-05-02T16:37:41.066Z,39.83
2023-05-02T16:40:09.578Z,39.41
2023-05-02T16:42:37.090Z,39.47
2023-05-02T16:45:04.508Z,40.08
2023-05-02T16:47:34.216Z,40.04
2023-05-02T16:50:01.777Z,40.61
2023-05-02T16:52:32.326Z,40.54
2023-05-02T16:54:59.177Z,41.06
2023-05-02T16:57:25.889Z,40.37
2023-05-02T16:59:52.729Z,40.71
2023-05-02T17:02:20.818Z,40.87
2023-05-02T17:04:49.385Z,41.67
2023-05-02T17:07:16.499Z,41.67
2023-05-02T17:09:44.351Z,41.54
2023-05-02T17:12:12.433Z,41.22
2023-05-02T17:14:42.288Z,41.35
2023-05-02T17:17:09.934Z,41.45
2023-05-02T17:19:37.074Z,41.76
2023-05-02T17:22:05.030Z,42.50
2023-05-02T17:24:32.905Z,42.45
2023-05-02T17:27:00.808Z,41.99
2023-05-02T17:29:27.581Z,42.42
2023-05-02T17:31:56.817Z,42.19
2023-05-02T17:34:28.260Z,42.24
2023-05-02T17:36:54.928Z,42.57
2023-05-02T17:39:22.720Z,42.96
2023-05-02T17:41:49.481Z,43.69
2023-05-02T17:44:16.654Z,42.92
2023-05-02T17:46:43.550Z,42.61
2023-05-02T17:49:10.533Z,42.98
2023-05-02T17:51:37.250Z,43.38
2023-05-02T17:54:04.300Z,43.25
2023-05-02T17:56:34.438Z,42.82
2023-05-02T17:59:01.161Z,42.62
2023-05-02T18:01:27.956Z,43.47
2023-05-02T18:03:54.749Z,43.68
2023-05-02T18:06:21.748Z,43.97
2023-05-02T18:08:51.590Z,43.16
2023-05-02T18:11:19.838Z,43.66
2023-05-02T18:13:46.733Z,44.28
2023-05-02T18:16:14.807Z,43.27
2023-05-02T18:18:41.972Z,43.13
2023-05-02T18:21:11.884Z,44.33
2023-05-02T18:23:40.260Z,43.63
2023-05-02T18:26:13.064Z,43.33
2023-05-02T18:28:42.661Z,43.32
2023-05-02T18:31:17.726Z,44.38
2023-05-02T18:33:46.690Z,44.30
2023-05-02T18:36:19.130Z,44.62
2023-05-02T18:38:46.756Z,44.46
2023-05-02T18:41:17.482Z,44.74
2023-05-02T18:43:47.083Z,45.21
2023-05-02T18:46:17.076Z,45.63
2023-05-02T18:48:47.455Z,45.40
2023-05-02T18:51:18.404Z,45.62
2023-05-02T18:53:45.472Z,45.93
2023-05-02T18:56:15.525Z,45.39
2023-05-02T18:58:43.117Z,45.77
2023-05-02T19:01:14.916Z,46.25
2023-05-02T19:03:45.710Z,46.24
2023-05-02T19:06:13.385Z,45.46
2023-05-02T19:08:40.414Z,46.33
2023-05-02T19:11:07.316Z,45.99
2023-05-02T19:13:33.981Z,45.55
2023-05-02T19:16:01.069Z,46.02
2023-05-02T19:18:27.933Z,45.77
2023-05-02T19:20:54.711Z,46.12
2023-05-02T19:23:21.444Z,46.70
2023-05-02T19:25:48.213Z,47.21
2023-05-02T19:28:16.853Z,46.63
2023-05-02T19:30:45.187Z,46.47
2023-05-02T19:33:12.060Z,46.45
2023-05-02T19:35:39.340Z,46.87
2023-05-02T19:38:06.080Z,47.27
2023-05-02T19:40:32.821Z,47.21
2023-05-02T19:42:59.536Z,46.92
2023-05-02T19:45:26.406Z,48.08
2023-05-02T19:47:53.600Z,47.22
2023-05-02T19:50:20.391Z,48.40
2023-05-02T19:52:47.128Z,48.31
2023-05-02T19:55:16.026Z,47.57
2023-05-02T19:57:44.482Z,47.84
2023-05-02T20:00:12.797Z,47.96
2023-05-02T20:02:40.357Z,47.11
2023-05-02T20:05:07.754Z,46.47
2023-05-02T20:07:34.561Z,46.39
2023-05-02T20:10:01.663Z,46.56
2023-05-02T20:12:30.204Z,46.88
2023-05-02T20:14:56.935Z,48.04
2023-05-02T20:17:23.663Z,46.59
2023-05-02T20:19:50.355Z,46.13
2023-05-02T20:22:18.134Z,45.98
2023-05-02T20:24:44.830Z,45.84
2023-05-02T20:27:11.517Z,46.23
2023-05-02T20:29:38.231Z,46.85
2023-05-02T20:32:05.631Z,46.30
2023-05-02T20:34:35.596Z,46.48
2023-05-02T20:37:05.231Z,46.94
2023-05-02T20:39:32.232Z,46.97
2023-05-02T20:41:58.957Z,47.25
2023-05-02T20:44:28.408Z,48.09
2023-05-02T20:46:55.173Z,48.45
2023-05-02T20:49:21.941Z,48.19
2023-05-02T20:51:50.087Z,49.49
2023-05-02T20:54:17.646Z,49.39
2023-05-02T20:56:44.468Z,49.33
2023-05-02T20:59:11.548Z,49.98
2023-05-02T21:01:38.723Z,50.46
2023-05-02T21:04:05.844Z,50.15
2023-05-02T21:06:32.934Z,49.75
2023-05-02T21:09:01.241Z,50.09
2023-05-02T21:11:28.189Z,50.97
2023-05-02T21:13:55.249Z,51.19
2023-05-02T21:16:22.344Z,51.09
2023-05-02T21:18:49.205Z,50.75
2023-05-02T21:21:16.056Z,51.28
2023-05-02T21:23:42.940Z,51.30
2023-05-02T21:26:09.778Z,51.63
2023-05-02T21:28:38.389Z,51.79
2023-05-02T21:31:07.198Z,51.99
2023-05-02T21:33:34.159Z,52.82
2023-05-02T21:36:01.589Z,53.46
2023-05-02T21:38:28.985Z,53.58
2023-05-02T21:40:55.883Z,53.34
2023-05-02T21:43:22.670Z,53.69
2023-05-02T21:45:50.102Z,53.75
2023-05-02T21:48:17.428Z,53.61
2023-05-02T21:50:44.807Z,54.26
2023-05-02T21:53:12.628Z,54.17
2023-05-02T21:55:42.220Z,54.39
2023-05-02T21:58:11.045Z,54.58
2023-05-02T22:00:39.306Z,54.46
2023-05-02T22:03:08.702Z,54.71
2023-05-02T22:05:35.849Z,55.87
2023-05-02T22:08:02.825Z,55.85
2023-05-02T22:10:29.956Z,55.27
2023-05-02T22:12:56.685Z,55.10
2023-05-02T22:15:23.316Z,55.22
2023-05-02T22:17:50.554Z,55.83
2023-05-02T22:20:17.217Z,56.10
2023-05-02T22:22:44.606Z,56.51
2023-05-02T22:25:11.299Z,56.23
2023-05-02T22:27:37.965Z,55.97
2023-05-02T22:30:05.455Z,56.27
2023-05-02T22:32:32.361Z,56.89
2023-05-02T22:34:59.182Z,57.39
2023-05-02T22:37:25.839Z,57.03
2023-05-02T22:39:53.492Z,56.60
2023-05-02T22:42:20.704Z,57.25
2023-05-02T22:44:54.335Z,56.99
2023-05-02T22:47:21.743Z,58.35
2023-05-02T22:49:49.064Z,57.86
2023-05-02T22:52:18.256Z,58.46
2023-05-02T22:54:44.890Z,58.78
2023-05-02T22:57:11.531Z,58.96
2023-05-02T22:59:38.120Z,57.80
2023-05-02T23:02:04.860Z,57.48
2023-05-02T23:04:32.890Z,57.64
2023-05-02T23:06:59.891Z,57.62
2023-05-02T23:09:26.571Z,57.85
2023-05-02T23:11:53.211Z,57.50
2023-05-02T23:14:21.784Z,58.00
2023-05-02T23:16:53.622Z,57.29
2023-05-02T23:19:20.483Z,56.98
2023-05-02T23:21:47.260Z,57.54
2023-05-02T23:24:13.976Z,57.91
2023-05-02T23:26:40.879Z,57.55
2023-05-02T23:29:08.662Z,58.07
2023-05-02T23:31:35.490Z,58.23
2023-05-02T23:34:02.249Z,58.07
2023-05-02T23:36:28.897Z,57.75
2023-05-02T23:38:55.499Z,58.24
2023-05-02T23:41:22.320Z,58.21
2023-05-02T23:43:49.301Z,57.16
2023-05-02T23:46:15.991Z,58.02
2023-05-02T23:48:42.652Z,58.09
2023-05-02T23:51:09.343Z,58.40
2023-05-02T23:53:36.046Z,58.19
2023-05-02T23:56:02.687Z,57.85
2023-05-02T23:58:29.522Z,58.25
